createdAt,value
2018-07-07T00:00:14.017Z,78.82
2018-07-07T00:01:53.579Z,78.73
2018-07-07T00:03:29.680Z,79.16
2018-07-07T00:05:05.752Z,79.11
2018-07-07T00:06:41.335Z,79.11
2018-07-07T00:08:16.705Z,78.87
2018-07-07T00:09:52.602Z,78.87
2018-07-07T00:11:28.928Z,79.79
2018-07-07T00:13:04.969Z,79.69
2018-07-07T00:14:40.544Z,79.74
2018-07-07T00:16:17.209Z,80.22
2018-07-07T00:17:52.569Z,79.40
2018-07-07T00:19:29.311Z,79.36
2018-07-07T00:21:05.777Z,79.58
2018-07-07T00:22:43.567Z,80.23
2018-07-07T00:24:19.445Z,79.89
2018-07-07T00:25:55.421Z,79.64
2018-07-07T00:27:32.206Z,79.45
2018-07-07T00:29:10.745Z,79.17
2018-07-07T00:30:46.788Z,79.56
2018-07-07T00:32:22.459Z,79.59
2018-07-07T00:33:59.518Z,79.77
2018-07-07T00:35:43.651Z,78.82
2018-07-07T00:37:19.391Z,79.45
2018-07-07T00:38:54.648Z,79.22
2018-07-07T00:40:31.251Z,79.86
2018-07-07T00:42:07.649Z,78.72
2018-07-07T00:43:44.438Z,78.40
2018-07-07T00:45:22.910Z,78.04
2018-07-07T00:47:01.054Z,78.86
2018-07-07T00:48:37.248Z,78.09
2018-07-07T00:50:16.061Z,76.50
2018-07-07T00:51:51.521Z,76.18
2018-07-07T00:53:27.821Z,76.11
2018-07-07T00:55:04.623Z,75.57
2018-07-07T00:56:40.411Z,76.00
2018-07-07T00:58:15.565Z,75.26
2018-07-07T00:59:52.463Z,75.33
2018-07-07T01:01:29.649Z,75.17
2018-07-07T01:03:06.007Z,73.59
2018-07-07T01:04:43.213Z,73.22
2018-07-07T01:06:27.222Z,72.87
2018-07-07T01:08:05.416Z,72.93
2018-07-07T01:09:40.584Z,72.29
2018-07-07T01:11:15.853Z,72.29
2018-07-07T01:12:52.492Z,71.80
2018-07-07T01:14:27.684Z,71.22
2018-07-07T01:16:04.367Z,71.38
2018-07-07T01:17:40.912Z,71.56
2018-07-07T01:19:17.156Z,71.75
2018-07-07T01:20:53.704Z,72.61
2018-07-07T01:22:29.016Z,72.02
2018-07-07T01:24:04.640Z,72.28
2018-07-07T01:25:39.671Z,72.65
2018-07-07T01:27:17.288Z,72.94
2018-07-07T01:28:54.345Z,73.31
2018-07-07T01:30:30.375Z,73.59
2018-07-07T01:32:06.319Z,74.29
2018-07-07T01:33:42.340Z,73.65
2018-07-07T01:35:18.008Z,74.29
2018-07-07T01:36:53.955Z,73.90
2018-07-07T01:38:30.049Z,73.11
2018-07-07T01:40:07.971Z,74.53
2018-07-07T01:41:43.068Z,74.25
2018-07-07T01:43:20.171Z,74.66
2018-07-07T01:44:55.834Z,74.17
2018-07-07T01:46:31.030Z,74.26
2018-07-07T01:48:07.820Z,74.71
2018-07-07T01:49:43.009Z,74.40
2018-07-07T01:51:18.553Z,73.94
2018-07-07T01:52:54.097Z,74.29
2018-07-07T01:54:30.237Z,74.54
2018-07-07T01:56:06.399Z,74.78
2018-07-07T01:57:41.710Z,74.21
2018-07-07T01:59:18.503Z,74.00
2018-07-07T02:00:57.447Z,73.10
2018-07-07T02:02:35.286Z,72.91
2018-07-07T02:04:12.182Z,72.88
2018-07-07T02:05:48.492Z,72.77
2018-07-07T02:07:26.364Z,72.48
2018-07-07T02:09:01.697Z,71.88
2018-07-07T02:10:37.777Z,71.16
2018-07-07T02:12:13.383Z,70.91
2018-07-07T02:13:49.412Z,70.81
2018-07-07T02:15:26.307Z,70.33
2018-07-07T02:17:02.450Z,69.78
2018-07-07T02:18:39.258Z,70.92
2018-07-07T02:20:15.126Z,70.78
2018-07-07T02:21:51.968Z,71.28
2018-07-07T02:23:27.817Z,71.04
2018-07-07T02:25:02.872Z,71.80
2018-07-07T02:26:38.138Z,71.15
2018-07-07T02:28:13.702Z,71.87
2018-07-07T02:29:50.026Z,72.30
2018-07-07T02:31:25.345Z,71.96
2018-07-07T02:33:00.582Z,72.01
2018-07-07T02:34:35.725Z,72.11
2018-07-07T02:36:11.241Z,72.29
2018-07-07T02:37:46.541Z,72.05
2018-07-07T02:39:21.598Z,71.90
2018-07-07T02:40:56.959Z,72.34
2018-07-07T02:42:32.196Z,71.93
2018-07-07T02:44:08.184Z,72.34
2018-07-07T02:45:43.321Z,71.87
2018-07-07T02:47:18.752Z,71.27
2018-07-07T02:48:54.882Z,70.95
2018-07-07T02:50:30.142Z,71.50
2018-07-07T02:52:05.441Z,71.28
2018-07-07T02:53:40.485Z,70.70
2018-07-07T02:55:15.770Z,70.48
2018-07-07T02:56:50.797Z,70.42
2018-07-07T02:58:25.993Z,70.45
2018-07-07T03:00:04.208Z,70.84
2018-07-07T03:01:39.507Z,70.15
2018-07-07T03:03:14.717Z,70.11
2018-07-07T03:04:49.752Z,69.88
2018-07-07T03:06:25.332Z,70.22
2018-07-07T03:08:00.414Z,70.29
2018-07-07T03:09:35.582Z,69.90
2018-07-07T03:11:11.658Z,69.01
2018-07-07T03:12:47.804Z,69.22
2018-07-07T03:14:23.956Z,67.94
2018-07-07T03:15:59.144Z,67.59
2018-07-07T03:17:34.341Z,67.12
2018-07-07T03:19:11.078Z,67.50
2018-07-07T03:20:47.237Z,67.31
2018-07-07T03:22:23.385Z,66.95
2018-07-07T03:23:58.609Z,66.88
2018-07-07T03:25:33.814Z,67.00
2018-07-07T03:27:09.129Z,66.52
2018-07-07T03:28:44.109Z,66.52
2018-07-07T03:30:20.553Z,67.04
2018-07-07T03:31:55.826Z,67.11
2018-07-07T03:33:30.928Z,67.08
2018-07-07T03:35:06.025Z,67.53
2018-07-07T03:36:41.595Z,67.77
2018-07-07T03:38:16.694Z,67.10
2018-07-07T03:39:51.938Z,66.43
2018-07-07T03:41:26.932Z,66.41
2018-07-07T03:43:01.841Z,65.81
2018-07-07T03:44:37.471Z,66.48
2018-07-07T03:46:12.482Z,65.76
2018-07-07T03:47:47.591Z,66.34
2018-07-07T03:49:22.582Z,66.74
2018-07-07T03:50:57.557Z,67.24
2018-07-07T03:52:33.058Z,66.83
2018-07-07T03:54:07.880Z,67.12
2018-07-07T03:55:42.915Z,67.41
2018-07-07T03:57:17.966Z,67.40
2018-07-07T03:58:53.290Z,66.67
2018-07-07T04:00:28.870Z,66.84
2018-07-07T04:02:03.902Z,67.09
2018-07-07T04:03:38.917Z,66.88
2018-07-07T04:05:14.016Z,66.99
2018-07-07T04:06:50.401Z,65.76
2018-07-07T04:08:29.996Z,65.36
2018-07-07T04:10:05.236Z,65.40
2018-07-07T04:11:40.309Z,66.02
2018-07-07T04:13:15.497Z,66.72
2018-07-07T04:14:50.877Z,66.04
2018-07-07T04:16:25.967Z,66.25
2018-07-07T04:18:00.969Z,66.50
2018-07-07T04:19:36.066Z,67.02
2018-07-07T04:21:14.225Z,66.87
2018-07-07T04:22:50.689Z,66.65
2018-07-07T04:24:25.780Z,66.21
2018-07-07T04:26:01.940Z,66.25
2018-07-07T04:27:37.126Z,66.63
2018-07-07T04:29:12.235Z,65.83
2018-07-07T04:30:47.439Z,65.61
2018-07-07T04:32:23.142Z,64.63
2018-07-07T04:33:58.144Z,65.78
2018-07-07T04:35:33.122Z,66.28
2018-07-07T04:37:08.738Z,64.58
2018-07-07T04:38:44.059Z,65.13
2018-07-07T04:40:19.525Z,63.21
2018-07-07T04:41:55.150Z,64.30
2018-07-07T04:43:30.764Z,64.92
2018-07-07T04:45:09.649Z,65.04
2018-07-07T04:46:46.525Z,64.64
2018-07-07T04:48:22.836Z,64.62
2018-07-07T04:49:58.581Z,65.28
2018-07-07T04:51:33.743Z,64.23
2018-07-07T04:53:10.072Z,64.08
2018-07-07T04:54:45.726Z,64.15
2018-07-07T04:56:21.808Z,62.91
2018-07-07T04:57:57.046Z,61.58
2018-07-07T04:59:36.333Z,61.97
2018-07-07T05:01:13.063Z,61.42
2018-07-07T05:02:48.334Z,60.22
2018-07-07T05:04:23.653Z,60.77
2018-07-07T05:06:00.165Z,60.39
2018-07-07T05:07:37.304Z,59.20
2018-07-07T05:09:12.383Z,58.19
2018-07-07T05:10:47.480Z,59.17
2018-07-07T05:12:22.884Z,58.77
2018-07-07T05:13:57.997Z,59.04
2018-07-07T05:15:33.304Z,59.42
2018-07-07T05:17:08.395Z,57.62
2018-07-07T05:18:44.715Z,58.58
2018-07-07T05:20:21.866Z,56.53
2018-07-07T05:21:56.890Z,55.89
2018-07-07T05:23:33.071Z,54.87
2018-07-07T05:25:10.345Z,57.19
2018-07-07T05:26:45.854Z,56.60
2018-07-07T05:28:21.520Z,55.71
2018-07-07T05:29:56.683Z,53.66
2018-07-07T05:31:32.574Z,54.50
2018-07-07T05:33:07.529Z,51.86
2018-07-07T05:34:42.693Z,51.43
2018-07-07T05:36:19.101Z,51.95
2018-07-07T05:37:54.551Z,49.50
2018-07-07T05:39:31.102Z,48.89
2018-07-07T05:41:06.372Z,47.32
2018-07-07T05:42:41.603Z,47.17
2018-07-07T05:44:19.160Z,49.23
2018-07-07T05:45:54.679Z,49.93
2018-07-07T05:47:29.552Z,47.47
2018-07-07T05:49:05.507Z,48.71
2018-07-07T05:50:40.540Z,47.13
2018-07-07T05:52:16.303Z,47.36
2018-07-07T05:53:51.701Z,47.64
2018-07-07T05:55:27.227Z,46.29
2018-07-07T05:57:02.168Z,45.93
2018-07-07T05:58:37.246Z,43.69
2018-07-07T06:00:15.813Z,42.22
2018-07-07T06:01:50.829Z,42.59
2018-07-07T06:03:25.972Z,43.72
2018-07-07T06:05:00.941Z,42.10
2018-07-07T06:06:36.250Z,41.27
2018-07-07T06:08:12.541Z,42.31
2018-07-07T06:09:47.630Z,44.26
2018-07-07T06:11:24.034Z,43.42
2018-07-07T06:12:59.811Z,42.78
2018-07-07T06:14:39.985Z,43.43
2018-07-07T06:16:15.992Z,43.11
2018-07-07T06:17:50.921Z,44.12
2018-07-07T06:19:26.170Z,43.35
2018-07-07T06:21:01.716Z,42.85
2018-07-07T06:22:38.305Z,43.45
2018-07-07T06:24:13.674Z,44.33
2018-07-07T06:25:48.784Z,43.20
2018-07-07T06:27:23.977Z,42.78
2018-07-07T06:28:59.596Z,42.99
2018-07-07T06:30:34.899Z,42.14
2018-07-07T06:32:11.089Z,43.08
2018-07-07T06:33:46.526Z,42.33
2018-07-07T06:35:22.844Z,40.62
2018-07-07T06:37:00.820Z,42.63
2018-07-07T06:38:37.101Z,41.10
2018-07-07T06:40:12.548Z,42.16
2018-07-07T06:41:49.888Z,42.26
2018-07-07T06:43:25.350Z,41.63
2018-07-07T06:45:08.465Z,40.14
2018-07-07T06:46:43.893Z,40.04
2018-07-07T06:48:19.877Z,41.96
2018-07-07T06:49:55.501Z,41.59
2018-07-07T06:51:32.340Z,40.80
2018-07-07T06:53:08.747Z,39.13
2018-07-07T06:54:44.256Z,39.10
2018-07-07T06:56:19.499Z,40.60
2018-07-07T06:57:54.881Z,38.78
2018-07-07T06:59:29.981Z,39.38
2018-07-07T07:01:06.284Z,40.36
2018-07-07T07:02:44.426Z,41.46
2018-07-07T07:04:19.607Z,40.02
2018-07-07T07:05:57.401Z,39.55
2018-07-07T07:07:33.895Z,39.63
2018-07-07T07:09:11.204Z,41.11
2018-07-07T07:10:50.673Z,40.88
2018-07-07T07:12:27.613Z,41.33
2018-07-07T07:14:03.805Z,41.08
2018-07-07T07:15:40.671Z,39.76
2018-07-07T07:17:18.309Z,42.60
2018-07-07T07:18:54.200Z,39.80
2018-07-07T07:20:29.429Z,41.84
2018-07-07T07:22:04.979Z,39.23
2018-07-07T07:23:42.040Z,39.57
2018-07-07T07:25:18.064Z,39.40
2018-07-07T07:26:53.351Z,40.43
2018-07-07T07:28:28.498Z,39.87
2018-07-07T07:30:06.655Z,40.24
2018-07-07T07:31:45.063Z,41.13
2018-07-07T07:33:20.469Z,41.03
2018-07-07T07:34:56.196Z,41.37
2018-07-07T07:36:39.906Z,41.71
2018-07-07T07:38:15.209Z,41.84
2018-07-07T07:39:50.595Z,38.80
2018-07-07T07:41:26.677Z,41.59
2018-07-07T07:43:02.935Z,41.29
2018-07-07T07:44:39.829Z,39.87
2018-07-07T07:46:16.444Z,39.85
2018-07-07T07:47:55.127Z,39.79
2018-07-07T07:49:34.835Z,39.61
2018-07-07T07:51:12.016Z,38.40
2018-07-07T07:54:33.072Z,37.24
2018-07-07T07:56:08.707Z,36.24
2018-07-07T07:57:45.541Z,34.67
2018-07-07T07:59:21.322Z,35.80
2018-07-07T08:00:58.336Z,36.53
2018-07-07T08:02:38.211Z,36.78
2018-07-07T08:04:15.268Z,38.11
2018-07-07T08:05:52.590Z,39.11
2018-07-07T08:07:28.147Z,38.33
2018-07-07T08:09:03.388Z,38.46
2018-07-07T08:10:38.389Z,38.81
2018-07-07T08:12:15.276Z,38.82
2018-07-07T08:13:51.997Z,38.64
2018-07-07T08:15:28.132Z,37.72
2018-07-07T08:17:06.702Z,36.96
2018-07-07T08:18:47.214Z,36.48
2018-07-07T08:20:23.318Z,35.57
2018-07-07T08:22:01.126Z,34.45
2018-07-07T08:23:37.060Z,35.10
2018-07-07T08:25:12.909Z,37.69
2018-07-07T08:26:49.293Z,38.18
2018-07-07T08:28:25.440Z,37.46
2018-07-07T08:30:02.760Z,39.84
2018-07-07T08:31:40.164Z,39.22
2018-07-07T08:33:16.715Z,40.04
2018-07-07T08:34:51.963Z,41.01
2018-07-07T08:36:27.810Z,40.79
2018-07-07T08:38:07.113Z,42.02
2018-07-07T08:39:42.781Z,41.46
2018-07-07T08:41:22.365Z,39.94
2018-07-07T08:42:58.276Z,41.72
2018-07-07T08:44:34.979Z,39.68
2018-07-07T08:46:13.020Z,40.23
2018-07-07T08:47:48.391Z,39.97
2018-07-07T08:49:23.596Z,38.80
2018-07-07T08:50:59.031Z,38.93
2018-07-07T08:52:34.905Z,40.36
2018-07-07T08:54:11.296Z,38.78
2018-07-07T08:55:46.817Z,38.20
2018-07-07T08:57:22.961Z,37.20
2018-07-07T08:58:58.592Z,37.75
2018-07-07T09:00:37.396Z,37.83
2018-07-07T09:02:12.665Z,37.81
2018-07-07T09:03:47.994Z,37.20
2018-07-07T09:05:24.522Z,36.29
2018-07-07T09:07:00.742Z,37.32
2018-07-07T09:08:35.583Z,36.67
2018-07-07T09:10:11.268Z,36.39
2018-07-07T09:11:49.088Z,36.48
2018-07-07T09:13:24.767Z,34.35
2018-07-07T09:15:00.342Z,35.10
2018-07-07T09:16:36.856Z,34.61
2018-07-07T09:18:14.596Z,34.68
2018-07-07T09:19:50.956Z,34.19
2018-07-07T09:21:28.373Z,35.28
2018-07-07T09:23:08.685Z,35.71
2018-07-07T09:26:25.196Z,35.32
2018-07-07T09:28:02.569Z,35.74
2018-07-07T09:29:39.411Z,35.86
2018-07-07T09:31:16.482Z,35.54
2018-07-07T09:32:53.841Z,34.07
2018-07-07T09:34:32.107Z,35.57
2018-07-07T09:36:13.202Z,35.08
2018-07-07T09:37:53.738Z,36.09
2018-07-07T09:39:31.387Z,35.51
2018-07-07T09:41:09.049Z,33.57
2018-07-07T09:42:47.707Z,34.66
2018-07-07T09:46:17.018Z,35.26
2018-07-07T09:47:58.478Z,35.37
2018-07-07T09:49:39.378Z,33.68
2018-07-07T09:51:21.576Z,34.52
2018-07-07T09:53:12.645Z,34.78
2018-07-07T09:54:54.184Z,33.00
2018-07-07T09:56:34.482Z,34.97
2018-07-07T09:58:15.789Z,33.07
2018-07-07T10:00:24.286Z,33.92
2018-07-07T10:02:08.701Z,34.28
2018-07-07T10:09:32.991Z,33.48
2018-07-07T10:11:09.910Z,33.62
2018-07-07T10:12:50.118Z,33.61
2018-07-07T10:14:31.731Z,34.90
2018-07-07T10:16:10.844Z,34.98
2018-07-07T10:17:48.037Z,32.09
2018-07-07T10:19:29.651Z,32.77
2018-07-07T10:21:08.686Z,33.94
2018-07-07T10:22:48.397Z,34.38
2018-07-07T10:26:21.534Z,32.63
2018-07-07T10:27:58.721Z,33.63
2018-07-07T10:29:36.116Z,35.04
2018-07-07T10:31:12.351Z,31.93
2018-07-07T10:33:00.355Z,34.69
2018-07-07T10:34:45.032Z,31.94
2018-07-07T10:36:29.372Z,34.83
2018-07-07T10:38:13.522Z,33.81
2018-07-07T10:39:57.699Z,31.87
2018-07-07T10:41:38.763Z,33.57
2018-07-07T10:43:19.503Z,32.96
2018-07-07T10:46:46.682Z,32.02
2018-07-07T10:48:29.431Z,31.58
2018-07-07T10:50:08.271Z,31.58
2018-07-07T10:51:45.206Z,29.43
2018-07-07T10:53:21.868Z,30.72
2018-07-07T10:55:08.311Z,31.50
2018-07-07T10:56:45.913Z,30.37
2018-07-07T10:58:22.470Z,31.97
2018-07-07T11:00:05.711Z,33.17
2018-07-07T11:01:44.128Z,34.70
2018-07-07T11:03:20.772Z,32.17
2018-07-07T11:04:58.866Z,31.25
2018-07-07T11:06:38.144Z,29.50
2018-07-07T11:08:23.478Z,30.41
2018-07-07T11:09:59.628Z,30.50
2018-07-07T11:11:40.622Z,30.25
2018-07-07T11:13:17.978Z,28.80
2018-07-07T11:14:56.670Z,29.16
2018-07-07T11:16:34.842Z,27.42
2018-07-07T11:18:11.219Z,28.17
2018-07-07T11:19:49.395Z,27.42
2018-07-07T11:21:29.382Z,26.88
2018-07-07T11:23:06.526Z,30.39
2018-07-07T11:25:14.498Z,29.55
2018-07-07T11:26:51.023Z,30.24
2018-07-07T11:28:27.734Z,30.17
2018-07-07T11:30:10.772Z,29.49
2018-07-07T11:31:51.770Z,30.85
2018-07-07T11:33:28.955Z,29.72
2018-07-07T11:35:25.471Z,30.55
2018-07-07T11:37:04.076Z,30.73
2018-07-07T11:38:40.993Z,29.15
2018-07-07T11:40:16.552Z,28.89
2018-07-07T11:41:55.109Z,29.51
2018-07-07T11:43:32.073Z,26.68
2018-07-07T11:45:13.787Z,27.60
2018-07-07T11:46:51.678Z,27.96
2018-07-07T11:48:27.506Z,28.43
2018-07-07T11:50:03.727Z,28.56
2018-07-07T11:51:38.887Z,26.87
2018-07-07T11:53:18.991Z,28.67
2018-07-07T11:54:56.034Z,28.00
2018-07-07T11:56:34.241Z,29.17
2018-07-07T11:58:12.375Z,26.96
2018-07-07T11:59:52.280Z,28.70
2018-07-07T12:01:29.455Z,27.39
2018-07-07T12:03:05.245Z,29.82
2018-07-07T12:04:48.119Z,29.00
2018-07-07T12:06:24.621Z,29.35
2018-07-07T12:08:13.781Z,31.37
2018-07-07T12:09:40.501Z,27.92
2018-07-07T12:11:16.668Z,30.40
2018-07-07T12:14:35.513Z,28.59
2018-07-07T12:16:11.225Z,28.04
2018-07-07T12:17:46.451Z,29.34
2018-07-07T12:19:26.075Z,27.81
2018-07-07T12:21:01.880Z,28.46
2018-07-07T12:28:13.523Z,29.22
2018-07-07T12:29:51.406Z,30.29
2018-07-07T12:31:26.598Z,28.85
2018-07-07T12:33:04.161Z,28.70
2018-07-07T12:34:43.718Z,28.79
2018-07-07T12:36:19.446Z,29.54
2018-07-07T12:38:01.386Z,28.97
2018-07-07T12:39:42.621Z,29.99
2018-07-07T12:41:20.995Z,29.45
2018-07-07T12:42:58.435Z,29.02
2018-07-07T12:44:40.532Z,30.89
2018-07-07T12:46:21.760Z,30.53
2018-07-07T12:48:01.460Z,30.91
2018-07-07T12:49:40.664Z,30.65
2018-07-07T12:51:18.294Z,31.19
2018-07-07T12:52:56.504Z,30.04
2018-07-07T12:54:33.308Z,29.80
2018-07-07T12:56:13.987Z,29.66
2018-07-07T12:57:51.552Z,30.88
2018-07-07T12:59:28.197Z,30.27
2018-07-07T13:01:04.827Z,29.86
2018-07-07T13:02:42.721Z,31.20
2018-07-07T13:04:21.277Z,31.62
2018-07-07T13:05:56.781Z,30.46
2018-07-07T13:07:31.894Z,31.79
2018-07-07T13:09:10.135Z,29.13
2018-07-07T13:10:45.593Z,30.23
2018-07-07T13:12:20.676Z,32.83
2018-07-07T13:13:56.533Z,31.37
2018-07-07T13:15:33.113Z,31.34
2018-07-07T13:17:08.898Z,31.28
2018-07-07T13:18:47.737Z,31.59
2018-07-07T13:20:24.690Z,34.39
2018-07-07T13:22:02.731Z,32.58
2018-07-07T13:23:40.117Z,32.86
2018-07-07T13:25:17.273Z,32.29
2018-07-07T13:26:53.421Z,31.63
2018-07-07T13:28:31.629Z,31.60
2018-07-07T13:30:15.608Z,32.60
2018-07-07T13:31:52.135Z,32.00
2018-07-07T13:33:32.544Z,31.59
2018-07-07T13:35:09.618Z,31.71
2018-07-07T13:36:49.466Z,30.64
2018-07-07T13:38:28.669Z,32.92
2018-07-07T13:40:05.448Z,32.12
2018-07-07T13:41:46.858Z,32.09
2018-07-07T13:43:30.639Z,33.06
2018-07-07T13:45:16.185Z,33.40
2018-07-07T13:46:57.025Z,33.79
2018-07-07T13:48:35.772Z,33.44
2018-07-07T13:50:13.658Z,34.45
2018-07-07T13:51:51.978Z,33.14
2018-07-07T13:53:30.620Z,32.76
2018-07-07T13:55:06.682Z,34.41
2018-07-07T13:56:43.641Z,33.06
2018-07-07T13:58:23.983Z,32.75
2018-07-07T14:01:54.660Z,32.83
2018-07-07T14:03:35.243Z,33.40
2018-07-07T14:05:14.839Z,33.37
2018-07-07T14:06:53.089Z,34.59
2018-07-07T14:08:34.771Z,33.03
2018-07-07T14:10:16.557Z,34.03
2018-07-07T14:12:00.411Z,32.83
2018-07-07T14:15:29.868Z,31.91
2018-07-07T14:17:08.890Z,33.65
2018-07-07T14:18:46.519Z,32.80
2018-07-07T14:20:25.108Z,34.57
2018-07-07T14:22:01.983Z,33.64
2018-07-07T14:23:38.245Z,34.06
2018-07-07T14:25:15.242Z,32.81
2018-07-07T14:26:53.153Z,34.67
2018-07-07T14:28:30.012Z,33.98
2018-07-07T14:30:16.664Z,34.68
2018-07-07T14:31:53.513Z,33.14
2018-07-07T14:33:32.287Z,33.45
2018-07-07T14:35:08.849Z,32.87
2018-07-07T14:36:46.341Z,35.30
2018-07-07T14:38:29.329Z,32.75
2018-07-07T14:40:06.716Z,32.77
2018-07-07T14:41:44.386Z,32.51
2018-07-07T14:43:22.950Z,34.15
2018-07-07T14:45:03.703Z,34.18
2018-07-07T14:46:43.016Z,33.70
2018-07-07T14:48:21.901Z,31.93
2018-07-07T14:50:00.644Z,32.75
2018-07-07T14:51:38.282Z,33.88
2018-07-07T14:53:15.903Z,33.33
2018-07-07T14:54:57.119Z,32.14
2018-07-07T14:56:35.017Z,34.22
2018-07-07T14:58:20.588Z,32.37
2018-07-07T14:59:56.399Z,32.76
2018-07-07T15:01:33.476Z,32.59
2018-07-07T15:03:10.403Z,34.67
2018-07-07T15:04:56.900Z,34.54
2018-07-07T15:06:37.432Z,33.55
2018-07-07T15:08:20.511Z,33.08
2018-07-07T15:09:58.460Z,33.65
2018-07-07T15:11:38.663Z,33.70
2018-07-07T15:13:18.679Z,34.54
2018-07-07T15:14:57.454Z,32.87
2018-07-07T15:16:36.618Z,31.86
2018-07-07T15:18:15.040Z,34.27
2018-07-07T15:20:02.559Z,34.10
2018-07-07T15:21:43.759Z,32.88
2018-07-07T15:23:23.200Z,34.02
2018-07-07T15:25:13.479Z,33.76
2018-07-07T15:26:56.785Z,33.85
2018-07-07T15:28:34.460Z,34.10
2018-07-07T15:30:18.453Z,33.68
2018-07-07T15:32:04.285Z,34.40
2018-07-07T15:33:42.319Z,34.92
2018-07-07T15:35:23.714Z,33.44
2018-07-07T15:37:00.141Z,34.36
2018-07-07T15:38:40.497Z,34.60
2018-07-07T15:40:20.118Z,34.97
2018-07-07T15:41:57.644Z,35.26
2018-07-07T15:43:36.567Z,34.36
2018-07-07T15:45:15.984Z,33.84
2018-07-07T15:47:00.160Z,33.76
2018-07-07T15:48:39.084Z,34.76
2018-07-07T15:50:18.895Z,34.11
2018-07-07T15:51:56.300Z,34.61
2018-07-07T15:53:32.258Z,34.78
2018-07-07T15:55:24.417Z,34.99
2018-07-07T15:58:45.184Z,34.00
2018-07-07T16:00:24.809Z,33.63
2018-07-07T16:04:47.100Z,35.01
2018-07-07T16:06:26.735Z,35.32
2018-07-07T16:08:26.356Z,33.86
2018-07-07T16:10:03.676Z,34.26
2018-07-07T16:12:00.461Z,34.30
2018-07-07T16:13:41.258Z,33.95
2018-07-07T16:15:28.155Z,34.17
2018-07-07T16:17:05.199Z,35.68
2018-07-07T16:18:43.631Z,34.11
2018-07-07T16:20:21.045Z,34.71
2018-07-07T16:21:56.918Z,34.55
2018-07-07T16:23:34.042Z,34.07
2018-07-07T16:25:11.073Z,34.14
2018-07-07T16:26:47.548Z,35.13
2018-07-07T16:28:25.037Z,34.74
2018-07-07T16:30:00.929Z,36.69
2018-07-07T16:31:38.857Z,36.33
2018-07-07T16:33:16.811Z,36.36
2018-07-07T16:34:55.615Z,34.47
2018-07-07T16:36:32.743Z,36.32
2018-07-07T16:38:10.301Z,35.76
2018-07-07T16:39:46.827Z,34.77
2018-07-07T16:41:23.909Z,34.86
2018-07-07T16:43:01.243Z,35.54
2018-07-07T16:44:40.597Z,36.09
2018-07-07T16:46:19.082Z,36.34
2018-07-07T16:48:02.603Z,35.54
2018-07-07T16:49:41.664Z,36.46
2018-07-07T16:51:50.164Z,35.35
2018-07-07T16:53:36.751Z,36.92
2018-07-07T16:55:16.972Z,37.07
2018-07-07T16:56:56.153Z,36.81
2018-07-07T16:58:35.599Z,36.35
2018-07-07T17:00:17.719Z,37.65
2018-07-07T17:01:56.739Z,37.63
2018-07-07T17:03:36.071Z,38.68
2018-07-07T17:05:14.919Z,37.54
2018-07-07T17:06:54.855Z,37.85
2018-07-07T17:08:31.843Z,38.74
2018-07-07T17:10:09.008Z,37.81
2018-07-07T17:11:49.742Z,38.07
2018-07-07T17:13:32.610Z,39.45
2018-07-07T17:15:17.150Z,39.14
2018-07-07T17:16:54.921Z,38.95
2018-07-07T17:18:32.639Z,37.83
2018-07-07T17:20:22.860Z,38.41
2018-07-07T17:22:00.690Z,37.44
2018-07-07T17:23:37.790Z,38.83
2018-07-07T17:25:15.346Z,37.71
2018-07-07T17:26:54.522Z,38.77
2018-07-07T17:28:31.539Z,38.20
2018-07-07T17:30:09.727Z,38.01
2018-07-07T17:31:46.755Z,38.61
2018-07-07T17:33:24.912Z,38.04
2018-07-07T17:35:01.355Z,38.75
2018-07-07T17:36:37.562Z,38.83
2018-07-07T17:38:17.770Z,40.15
2018-07-07T17:39:54.714Z,38.96
2018-07-07T17:41:34.046Z,39.90
2018-07-07T17:43:11.832Z,39.43
2018-07-07T17:44:49.371Z,40.08
2018-07-07T17:46:28.907Z,39.42
2018-07-07T17:48:11.547Z,39.55
2018-07-07T17:49:50.525Z,40.07
2018-07-07T17:51:29.408Z,40.84
2018-07-07T17:53:14.288Z,40.19
2018-07-07T17:54:53.529Z,40.32
2018-07-07T17:56:31.971Z,41.02
2018-07-07T17:58:11.055Z,40.12
2018-07-07T17:59:50.198Z,40.40
2018-07-07T18:01:26.849Z,41.67
2018-07-07T18:03:21.237Z,40.26
2018-07-07T18:05:01.194Z,41.21
2018-07-07T18:06:40.249Z,41.45
2018-07-07T18:08:17.047Z,41.84
2018-07-07T18:09:55.126Z,40.83
2018-07-07T18:11:32.279Z,41.54
2018-07-07T18:14:49.552Z,40.92
2018-07-07T18:16:27.622Z,41.48
2018-07-07T18:18:06.806Z,41.77
2018-07-07T18:19:45.555Z,40.95
2018-07-07T18:21:23.803Z,41.27
2018-07-07T18:23:10.557Z,41.03
2018-07-07T18:24:48.646Z,41.60
2018-07-07T18:26:29.401Z,41.52
2018-07-07T18:28:07.692Z,41.17
2018-07-07T18:29:46.576Z,42.04
2018-07-07T18:31:24.910Z,41.21
2018-07-07T18:33:02.144Z,42.12
2018-07-07T18:34:39.725Z,41.46
2018-07-07T18:36:27.840Z,41.71
2018-07-07T18:38:06.912Z,41.50
2018-07-07T18:39:50.058Z,41.89
2018-07-07T18:41:26.631Z,41.53
2018-07-07T18:43:04.494Z,41.49
2018-07-07T18:44:42.721Z,41.90
2018-07-07T18:46:21.522Z,42.44
2018-07-07T18:48:02.298Z,42.18
2018-07-07T18:49:41.893Z,42.53
2018-07-07T18:51:25.042Z,42.57
2018-07-07T18:53:04.990Z,42.08
2018-07-07T18:54:51.505Z,42.85
2018-07-07T18:56:33.917Z,42.11
2018-07-07T18:58:15.715Z,42.61
2018-07-07T18:59:55.823Z,43.25
2018-07-07T19:01:37.036Z,43.87
2018-07-07T19:03:16.758Z,43.79
2018-07-07T19:04:59.494Z,45.15
2018-07-07T19:06:38.085Z,44.10
2018-07-07T19:08:22.261Z,44.22
2018-07-07T19:10:03.919Z,44.90
2018-07-07T19:11:45.561Z,44.86
2018-07-07T19:13:31.812Z,45.21
2018-07-07T19:15:14.985Z,46.07
2018-07-07T19:16:57.362Z,46.25
2018-07-07T19:18:39.433Z,46.87
2018-07-07T19:20:22.738Z,46.52
2018-07-07T19:22:14.330Z,47.55
2018-07-07T19:23:58.089Z,47.42
2018-07-07T19:25:42.004Z,47.25
2018-07-07T19:27:24.518Z,46.96
2018-07-07T19:29:07.410Z,47.46
2018-07-07T19:30:47.627Z,47.77
2018-07-07T19:32:34.563Z,47.84
2018-07-07T19:34:17.941Z,49.58
2018-07-07T19:36:01.468Z,49.54
2018-07-07T19:37:38.365Z,49.53
2018-07-07T19:39:18.051Z,50.74
2018-07-07T19:41:04.017Z,51.35
2018-07-07T19:42:49.323Z,51.93
2018-07-07T19:44:28.218Z,51.70
2018-07-07T19:48:08.416Z,52.77
2018-07-07T19:49:46.276Z,52.81
2018-07-07T19:51:23.984Z,53.19
2018-07-07T19:53:01.744Z,53.96
2018-07-07T19:54:44.483Z,54.08
2018-07-07T19:56:26.650Z,54.88
2018-07-07T19:58:15.574Z,55.49
2018-07-07T20:00:00.503Z,56.14
2018-07-07T20:01:48.825Z,57.01
2018-07-07T20:03:30.240Z,56.88
2018-07-07T20:05:14.510Z,57.56
2018-07-07T20:06:55.503Z,55.95
2018-07-07T20:08:43.245Z,57.33
2018-07-07T20:10:27.512Z,57.53
2018-07-07T20:12:17.714Z,58.12
2018-07-07T20:14:05.330Z,59.20
2018-07-07T20:15:56.349Z,59.49
2018-07-07T20:18:10.813Z,59.36
2018-07-07T20:23:55.513Z,61.00
2018-07-07T20:25:41.044Z,60.88
2018-07-07T20:27:28.372Z,60.55
2018-07-07T20:29:06.646Z,61.69
2018-07-07T20:30:46.830Z,61.79
2018-07-07T20:32:42.102Z,61.47
2018-07-07T20:36:18.724Z,61.72
2018-07-07T20:37:59.880Z,63.45
2018-07-07T20:39:47.846Z,62.73
2018-07-07T20:41:29.309Z,62.74
2018-07-07T20:43:10.755Z,63.61
2018-07-07T20:44:50.659Z,62.48
2018-07-07T20:46:41.254Z,63.29
2018-07-07T20:48:18.847Z,63.46
2018-07-07T20:49:57.194Z,64.43
2018-07-07T20:51:36.779Z,64.34
2018-07-07T20:53:20.796Z,64.86
2018-07-07T20:55:02.928Z,65.21
2018-07-07T20:58:59.587Z,65.25
2018-07-07T21:01:01.240Z,65.46
2018-07-07T21:02:43.216Z,65.66
2018-07-07T21:04:28.222Z,65.36
2018-07-07T21:06:08.624Z,65.62
2018-07-07T21:08:00.827Z,66.26
2018-07-07T21:09:40.265Z,65.11
2018-07-07T21:11:27.011Z,64.50
2018-07-07T21:15:13.583Z,63.66
2018-07-07T21:17:38.526Z,62.92
2018-07-07T21:19:21.496Z,64.26
2018-07-07T21:21:07.267Z,62.76
2018-07-07T21:22:46.426Z,62.84
2018-07-07T21:24:26.043Z,62.64
2018-07-07T21:26:08.231Z,63.33
2018-07-07T21:27:51.569Z,62.35
2018-07-07T21:29:28.599Z,63.10
2018-07-07T21:31:08.028Z,62.91
2018-07-07T21:32:50.003Z,62.78
2018-07-07T21:34:32.064Z,62.14
2018-07-07T21:38:13.368Z,62.63
2018-07-07T21:39:54.579Z,61.68
2018-07-07T21:41:37.853Z,61.42
2018-07-07T21:43:18.909Z,62.82
2018-07-07T21:46:47.409Z,62.92
2018-07-07T21:48:28.214Z,63.38
2018-07-07T21:50:12.207Z,63.00
2018-07-07T21:51:51.350Z,63.68
2018-07-07T21:53:32.301Z,63.28
2018-07-07T21:55:14.600Z,63.10
2018-07-07T21:56:56.561Z,63.32